Time;durP1;ratioP1;P1;durP2;ratioP2;P2;SDS_P1;SDS_P2;PMS_P1;PMS_P2;Temp;Humidity;BMP_temperature;BMP_pressure;BME280_temperature;BME280_humidity;BME280_pressure;Samples;Min_cycle;Max_cycle;Signal;HPM_P1;HPM_P2
2023/08/13 00:00:57;;;;;;;;;;;;;;;26.12;56.66;101119.69;6254519;23;20334;-84
2023/08/13 00:03:49;;;;;;;;;;;;;;;26.10;56.99;101122.13;6234075;23;19908;-84
2023/08/13 00:06:40;;;;;;;;;;;;;;;26.05;57.51;101119.78;6233807;23;19907;-84
2023/08/13 00:09:30;;;;;;;;;;;;;;;26.07;57.54;101120.13;6233586;23;19908;-84
2023/08/13 00:12:22;;;;;;;;;;;;;;;26.01;57.56;101118.97;6255743;23;19908;-85
2023/08/13 00:15:12;;;;;;;;;;;;;;;25.99;57.51;101121.41;6233578;23;20410;-85
2023/08/13 00:18:04;;;;;;;;;;;;;;;25.95;58.05;101115.06;6233567;23;19907;-84
2023/08/13 00:20:56;;;;;;;;;;;;;;;25.89;58.40;101122.28;6233390;23;19907;-84
2023/08/13 00:23:48;;;;;;;;;;;;;;;25.84;58.56;101128.28;6254611;23;19907;-84
2023/08/13 00:26:40;;;;;;;;;;;;;;;25.85;58.84;101121.53;6255679;23;19907;-85
2023/08/13 00:29:28;;;;;;;;;;;;;;;25.83;58.88;101118.34;6229005;23;19907;-85
2023/08/13 00:32:14;;;;;;;;;;;;;;;25.78;59.32;101116.78;6255888;23;19911;-84
2023/08/13 00:35:06;;;;;;;;;;;;;;;25.73;59.75;101116.44;6233816;23;19911;-84
2023/08/13 00:37:58;;;;;;;;;;;;;;;25.65;59.69;101118.47;6233106;23;19907;-84
2023/08/13 00:40:50;;;;;;;;;;;;;;;25.61;60.03;101122.47;6254806;23;19907;-85
2023/08/13 00:43:42;;;;;;;;;;;;;;;25.62;59.78;101122.06;6255328;23;19908;-84
2023/08/13 00:46:32;;;;;;;;;;;;;;;25.57;60.23;101116.13;6233739;23;20330;-85
2023/08/13 00:49:23;;;;;;;;;;;;;;;25.51;60.42;101115.75;6254369;23;19907;-84
2023/08/13 00:52:16;;;;;;;;;;;;;;;25.56;60.45;101115.34;6255520;23;19907;-84
2023/08/13 00:55:08;;;;;;;;;;;;;;;25.60;60.01;101115.34;6233119;23;19912;-85
2023/08/13 00:57:57;;;;;;;;;;;;;;;25.59;59.94;101116.53;6233126;23;19911;-84
2023/08/13 01:00:49;;;;;;;;;;;;;;;25.63;59.93;101108.94;6233008;23;19907;-84
2023/08/13 01:03:41;;;;;;;;;;;;;;;25.63;59.99;101104.16;6232630;23;20330;-85
2023/08/13 01:06:45;;;;;;;;;;;;;;;25.56;60.18;101112.56;6233214;23;19908;-84
2023/08/13 01:09:50;;;;;;;;;;;;;;;25.59;60.29;101117.31;6254166;23;19907;-85
2023/08/13 01:12:46;;;;;;;;;;;;;;;25.55;60.38;101108.19;6254173;23;19911;-84
2023/08/13 01:15:40;;;;;;;;;;;;;;;25.49;60.37;101110.59;6233165;23;19912;-84
2023/08/13 01:18:30;;;;;;;;;;;;;;;25.52;60.56;101109.78;6255171;23;19907;-84
2023/08/13 01:21:22;;;;;;;;;;;;;;;25.42;60.89;101109.84;6233193;23;20319;-84
2023/08/13 01:24:14;;;;;;;;;;;;;;;25.39;60.87;101103.09;6233010;23;19907;-84
2023/08/13 01:27:26;;;;;;;;;;;;;;;25.32;60.91;101105.91;6232784;23;19908;-84
2023/08/13 01:30:20;;;;;;;;;;;;;;;25.32;61.04;101103.13;6254547;23;20322;-84
2023/08/13 01:33:15;;;;;;;;;;;;;;;25.31;61.00;101104.31;6234817;23;19907;-85
2023/08/13 01:36:07;;;;;;;;;;;;;;;25.33;60.96;101103.91;6257074;23;19912;-85
2023/08/13 01:38:58;;;;;;;;;;;;;;;25.41;60.23;101100.69;6234673;23;20323;-84
2023/08/13 01:41:54;;;;;;;;;;;;;;;25.33;60.55;101101.94;6257043;23;20335;-84
2023/08/13 01:44:47;;;;;;;;;;;;;;;25.38;60.20;101104.28;6234321;23;19907;-84
2023/08/13 01:47:36;;;;;;;;;;;;;;;25.38;60.08;101101.50;6234386;23;19907;-84
2023/08/13 01:50:28;;;;;;;;;;;;;;;25.34;60.51;101097.16;6234268;23;19907;-84
2023/08/13 01:53:22;;;;;;;;;;;;;;;25.29;60.52;101095.59;6234314;23;19908;-84
2023/08/13 01:56:14;;;;;;;;;;;;;;;25.31;60.49;101104.31;6234244;23;20259;-84
2023/08/13 01:59:01;;;;;;;;;;;;;;;25.25;60.86;101100.38;6233926;23;20247;-84
2023/08/13 02:01:52;;;;;;;;;;;;;;;25.24;60.89;101104.38;6234628;23;20242;-84
2023/08/13 02:04:44;;;;;;;;;;;;;;;25.09;61.74;101105.66;6234984;23;19908;-84
2023/08/13 02:07:34;;;;;;;;;;;;;;;25.06;61.69;101104.44;6234777;23;19908;-84
2023/08/13 02:10:26;;;;;;;;;;;;;;;25.04;61.72;101100.50;6234102;23;19908;-85
2023/08/13 02:13:15;;;;;;;;;;;;;;;25.06;61.99;101104.44;6256020;23;19907;-84
2023/08/13 02:16:07;;;;;;;;;;;;;;;25.01;62.13;101106.84;6234749;23;19912;-85
2023/08/13 02:18:59;;;;;;;;;;;;;;;25.01;62.34;101101.28;6234505;22;19934;-85
2023/08/13 02:21:51;;;;;;;;;;;;;;;24.99;62.40;101092.56;6255417;23;20234;-85
2023/08/13 02:24:42;;;;;;;;;;;;;;;25.02;61.93;101100.91;6233980;23;19907;-84
2023/08/13 02:27:34;;;;;;;;;;;;;;;24.90;62.88;101101.34;6256421;23;19912;-84
2023/08/13 02:30:26;;;;;;;;;;;;;;;24.94;62.82;101101.34;6234758;23;19907;-84
2023/08/13 02:33:18;;;;;;;;;;;;;;;24.88;62.74;101106.53;6255434;23;19911;-84
2023/08/13 02:36:10;;;;;;;;;;;;;;;24.95;62.68;101097.34;6254796;23;19919;-85
2023/08/13 02:39:02;;;;;;;;;;;;;;;24.96;62.46;101093.34;6233827;23;19908;-84
2023/08/13 02:41:54;;;;;;;;;;;;;;;25.01;62.26;101090.94;6233910;23;19907;-84
2023/08/13 02:44:45;;;;;;;;;;;;;;;25.04;62.07;101083.81;6234330;23;19908;-85
2023/08/13 02:47:37;;;;;;;;;;;;;;;24.99;62.45;101081.44;6234370;23;19907;-84
2023/08/13 02:50:29;;;;;;;;;;;;;;;24.93;62.48;101089.41;6233715;23;20250;-83
2023/08/13 02:53:21;;;;;;;;;;;;;;;24.95;62.56;101086.19;6234284;23;19908;-84
2023/08/13 02:56:13;;;;;;;;;;;;;;;24.90;62.54;101072.72;6233345;23;19911;-84
2023/08/13 02:59:02;;;;;;;;;;;;;;;24.96;62.21;101073.88;6254382;23;19926;-84
2023/08/13 03:01:52;;;;;;;;;;;;;;;24.96;62.21;101071.09;6254586;23;19908;-84
2023/08/13 03:04:44;;;;;;;;;;;;;;;24.90;62.81;101064.34;6254845;23;19907;-85
2023/08/13 03:07:36;;;;;;;;;;;;;;;24.84;62.80;101063.19;6233204;23;20327;-84
2023/08/13 03:10:25;;;;;;;;;;;;;;;24.89;62.57;101060.03;6254616;23;20334;-84
2023/08/13 03:13:17;;;;;;;;;;;;;;;24.86;62.83;101066.34;6233262;23;19908;-84
2023/08/13 03:16:10;;;;;;;;;;;;;;;24.75;63.36;101058.03;6254855;23;19911;-83
2023/08/13 03:19:02;;;;;;;;;;;;;;;24.83;62.63;101058.81;6233562;23;20238;-84
2023/08/13 03:21:52;;;;;;;;;;;;;;;24.74;63.33;101056.44;6233993;23;19904;-83
2023/08/13 03:24:43;;;;;;;;;;;;;;;24.56;63.78;101053.75;6254302;23;19908;-84
2023/08/13 03:27:36;;;;;;;;;;;;;;;24.42;64.42;101053.78;6255612;23;19907;-84
2023/08/13 03:30:28;;;;;;;;;;;;;;;24.36;65.14;101052.59;6233236;23;20318;-84
2023/08/13 03:33:21;;;;;;;;;;;;;;;24.49;64.49;101053.75;6254814;23;19911;-84
2023/08/13 03:36:13;;;;;;;;;;;;;;;24.51;64.15;101054.16;6233302;23;19911;-84
2023/08/13 03:39:05;;;;;;;;;;;;;;;24.59;63.94;101058.50;6233674;23;19908;-84
2023/08/13 03:41:57;;;;;;;;;;;;;;;24.68;63.55;101053.31;6234013;23;19908;-84
2023/08/13 03:44:48;;;;;;;;;;;;;;;24.74;63.47;101050.88;6233112;23;19911;-84
2023/08/13 03:47:40;;;;;;;;;;;;;;;24.71;63.49;101049.72;6234121;23;19907;-84
2023/08/13 03:50:31;;;;;;;;;;;;;;;24.70;63.40;101048.13;6233729;23;20331;-84
2023/08/13 03:53:24;;;;;;;;;;;;;;;24.71;63.74;101049.72;6232847;23;19907;-85
2023/08/13 03:56:14;;;;;;;;;;;;;;;24.74;63.07;101048.09;6233628;23;19912;-84
2023/08/13 03:59:06;;;;;;;;;;;;;;;24.66;63.74;101041.00;6253000;23;20326;-85
2023/08/13 04:01:58;;;;;;;;;;;;;;;24.67;63.70;101050.94;6233627;23;19907;-84
2023/08/13 04:04:50;;;;;;;;;;;;;;;24.66;63.54;101052.13;6233658;23;19912;-84
2023/08/13 04:07:40;;;;;;;;;;;;;;;24.60;63.63;101048.94;6232921;23;19908;-84
2023/08/13 04:10:27;;;;;;;;;;;;;;;24.66;63.52;101041.78;6233502;23;19907;-85
2023/08/13 04:13:19;;;;;;;;;;;;;;;24.57;63.88;101043.41;6254344;23;19908;-84
2023/08/13 04:16:11;;;;;;;;;;;;;;;24.66;63.80;101043.78;6233401;23;19915;-84
2023/08/13 04:19:05;;;;;;;;;;;;;;;24.57;63.59;101055.34;6233345;23;19907;-84
2023/08/13 04:21:54;;;;;;;;;;;;;;;24.48;64.16;101049.38;6255631;23;20227;-84
2023/08/13 04:24:46;;;;;;;;;;;;;;;24.35;64.82;101048.22;6233397;23;20327;-84
2023/08/13 04:27:38;;;;;;;;;;;;;;;24.40;64.73;101044.25;6232857;23;19907;-84
2023/08/13 04:30:30;;;;;;;;;;;;;;;24.46;64.26;101043.44;6233501;23;20254;-84
2023/08/13 04:33:22;;;;;;;;;;;;;;;24.33;65.01;101044.28;6233748;23;19908;-84
2023/08/13 04:36:14;;;;;;;;;;;;;;;24.31;65.03;101043.88;6254300;23;19911;-84
2023/08/13 04:39:06;;;;;;;;;;;;;;;24.27;65.35;101041.91;6233081;23;19907;-84
2023/08/13 04:41:59;;;;;;;;;;;;;;;24.31;65.29;101041.91;6232778;23;19907;-84
2023/08/13 04:44:49;;;;;;;;;;;;;;;24.34;64.93;101048.63;6255970;23;19907;-85
2023/08/13 04:47:41;;;;;;;;;;;;;;;24.33;65.08;101042.28;6254346;23;19911;-84
2023/08/13 04:50:32;;;;;;;;;;;;;;;24.33;65.33;101045.06;6233190;23;20231;-84
2023/08/13 04:53:22;;;;;;;;;;;;;;;24.32;65.30;101054.59;6233143;23;19908;-85
2023/08/13 04:56:14;;;;;;;;;;;;;;;24.38;65.19;101055.00;6233931;23;19915;-86
2023/08/13 04:59:06;;;;;;;;;;;;;;;24.42;65.52;101059.34;6254252;23;19907;-84
2023/08/13 05:01:58;;;;;;;;;;;;;;;24.50;65.22;101057.31;6232975;23;19908;-85
2023/08/13 05:04:51;;;;;;;;;;;;;;;24.53;65.41;101053.75;6234793;23;19911;-81
2023/08/13 05:07:43;;;;;;;;;;;;;;;24.56;65.32;101059.31;6236787;23;20514;-85
2023/08/13 05:10:35;;;;;;;;;;;;;;;24.63;65.33;101064.84;6255975;23;20330;-84
2023/08/13 05:13:27;;;;;;;;;;;;;;;24.53;66.23;101057.31;6234560;23;19908;-83
2023/08/13 05:16:19;;;;;;;;;;;;;;;24.67;65.94;101050.94;6234367;23;19916;-84
2023/08/13 05:19:11;;;;;;;;;;;;;;;24.75;65.27;101051.69;6234165;23;19912;-84
2023/08/13 05:22:02;;;;;;;;;;;;;;;24.88;65.22;101053.66;6234621;23;19904;-84
2023/08/13 05:24:49;;;;;;;;;;;;;;;24.93;65.50;101058.00;6234481;23;19908;-84
2023/08/13 05:27:41;;;;;;;;;;;;;;;25.00;64.99;101061.53;6234492;23;19907;-84
2023/08/13 05:30:34;;;;;;;;;;;;;;;25.06;64.57;101059.91;6235184;23;19907;-83
2023/08/13 05:33:28;;;;;;;;;;;;;;;25.14;64.31;101060.69;6234539;23;19907;-84
2023/08/13 05:36:22;;;;;;;;;;;;;;;25.19;64.39;101073.38;6213636;23;19915;-83
2023/08/13 05:39:13;;;;;;;;;;;;;;;25.21;64.39;101070.97;6234801;23;19907;-84
2023/08/13 05:42:03;;;;;;;;;;;;;;;25.10;64.71;101074.59;6234943;23;19907;-84
2023/08/13 05:44:52;;;;;;;;;;;;;;;25.14;64.84;101080.16;6255725;23;19907;-84
2023/08/13 05:47:42;;;;;;;;;;;;;;;25.21;64.58;101076.53;6235080;23;19911;-83
2023/08/13 05:50:31;;;;;;;;;;;;;;;25.22;64.68;101080.91;6233857;23;20331;-84
2023/08/13 05:53:23;;;;;;;;;;;;;;;25.19;65.12;101079.75;6234239;23;19911;-84
2023/08/13 05:56:15;;;;;;;;;;;;;;;25.25;65.14;101086.44;6256490;23;19915;-84
2023/08/13 05:59:04;;;;;;;;;;;;;;;25.31;64.90;101082.03;6234057;23;19907;-84
2023/08/13 06:01:56;;;;;;;;;;;;;;;25.41;65.04;101086.75;6256138;23;19907;-84
2023/08/13 06:04:48;;;;;;;;;;;;;;;25.37;65.37;101086.00;6256454;23;19908;-84
2023/08/13 06:07:36;;;;;;;;;;;;;;;25.42;64.84;101090.34;6256375;23;19919;-83
2023/08/13 06:10:27;;;;;;;;;;;;;;;25.53;64.48;101086.28;6256589;23;19908;-83
2023/08/13 06:13:19;;;;;;;;;;;;;;;25.61;64.44;101097.41;6234216;23;19907;-84
2023/08/13 06:16:11;;;;;;;;;;;;;;;25.73;64.01;101099.72;6254996;23;20246;-84
2023/08/13 06:19:03;;;;;;;;;;;;;;;25.78;63.94;101108.44;6249432;23;19912;-83
2023/08/13 06:21:52;;;;;;;;;;;;;;;25.82;63.21;101100.03;6234586;23;20478;-83
2023/08/13 06:24:44;;;;;;;;;;;;;;;25.94;62.77;101103.13;6234598;23;19907;-84
2023/08/13 06:27:36;;;;;;;;;;;;;;;25.96;62.71;101100.72;6254986;23;19911;-84
2023/08/13 06:30:28;;;;;;;;;;;;;;;26.04;62.55;101101.47;6255384;23;19907;-84
2023/08/13 06:33:20;;;;;;;;;;;;;;;26.18;61.81;101111.69;6255374;23;20285;-83
2023/08/13 06:36:12;;;;;;;;;;;;;;;26.33;61.50;101108.38;6255980;23;19911;-84
2023/08/13 06:39:04;;;;;;;;;;;;;;;26.42;61.17;101109.88;6233408;23;19907;-83
2023/08/13 06:41:56;;;;;;;;;;;;;;;26.62;60.47;101110.88;6254597;23;19912;-83
2023/08/13 06:44:50;;;;;;;;;;;;;;;26.64;60.31;101111.25;6233217;23;20281;-83
2023/08/13 06:47:40;;;;;;;;;;;;;;;26.58;60.79;101115.69;6233902;23;19911;-83
2023/08/13 06:50:30;;;;;;;;;;;;;;;26.66;60.18;101109.66;6255525;23;19911;-83
2023/08/13 06:53:19;;;;;;;;;;;;;;;26.62;60.77;101114.44;6255672;23;19911;-83
2023/08/13 06:56:11;;;;;;;;;;;;;;;26.81;59.87;101110.28;6254536;23;20255;-84
2023/08/13 06:59:03;;;;;;;;;;;;;;;26.96;59.84;101110.91;6255574;23;19908;-83
2023/08/13 07:01:55;;;;;;;;;;;;;;;27.03;60.10;101116.41;6233708;23;19908;-83
2023/08/13 07:04:47;;;;;;;;;;;;;;;27.11;59.55;101118.69;6254830;23;19911;-84
2023/08/13 07:07:37;;;;;;;;;;;;;;;27.18;58.79;101109.41;6255606;23;19911;-83
2023/08/13 07:10:29;;;;;;;;;;;;;;;27.34;58.64;101114.41;6233572;23;19907;-84
2023/08/13 07:13:21;;;;;;;;;;;;;;;27.31;58.64;101110.44;6254948;23;19911;-84
2023/08/13 07:16:13;;;;;;;;;;;;;;;27.36;58.44;101115.56;6255610;23;19912;-83
2023/08/13 07:19:05;;;;;;;;;;;;;;;27.47;59.08;101107.03;6253909;23;19907;-83
2023/08/13 07:21:55;;;;;;;;;;;;;;;27.61;58.43;101112.44;6254838;23;20330;-84
2023/08/13 07:24:48;;;;;;;;;;;;;;;27.53;58.07;101117.34;6233516;23;19911;-83
2023/08/13 07:27:40;;;;;;;;;;;;;;;27.65;57.92;101118.75;6233805;23;20327;-87
2023/08/13 07:30:32;;;;;;;;;;;;;;;27.80;58.05;101108.94;6254783;23;19907;-85
2023/08/13 07:33:24;;;;;;;;;;;;;;;27.88;58.65;101110.44;6256035;23;19907;-83
2023/08/13 07:36:16;;;;;;;;;;;;;;;27.85;57.69;101111.25;6233505;23;20307;-83
2023/08/13 07:39:08;;;;;;;;;;;;;;;28.06;57.16;101110.91;6232948;23;19907;-83
2023/08/13 07:42:00;;;;;;;;;;;;;;;28.15;56.83;101106.78;6233405;23;19907;-81
2023/08/13 07:44:47;;;;;;;;;;;;;;;28.27;55.80;101111.78;6235162;23;19908;-85
2023/08/13 07:47:37;;;;;;;;;;;;;;;28.45;56.11;101112.25;6262095;23;20327;-85
2023/08/13 07:50:29;;;;;;;;;;;;;;;28.46;55.82;101117.44;6259963;23;19907;-85
2023/08/13 07:53:19;;;;;;;;;;;;;;;28.58;55.23;101115.22;6261021;23;19908;-84
2023/08/13 07:56:08;;;;;;;;;;;;;;;28.74;54.57;101132.94;6255565;23;19915;-84
2023/08/13 07:59:00;;;;;;;;;;;;;;;28.70;54.53;101123.75;6234048;23;19908;-84
2023/08/13 08:01:52;;;;;;;;;;;;;;;28.66;54.07;101125.03;6254842;23;20607;-84
2023/08/13 08:04:41;;;;;;;;;;;;;;;28.70;53.92;101120.19;6234258;23;19908;-85
2023/08/13 08:07:31;;;;;;;;;;;;;;;28.66;54.33;101122.25;6233145;23;19908;-85
2023/08/13 08:10:33;;;;;;;;;;;;;;;28.72;54.77;101126.16;6233333;23;19907;-85
2023/08/13 08:13:23;;;;;;;;;;;;;;;28.68;54.25;101123.41;6232907;23;20270;-84
2023/08/13 08:16:15;;;;;;;;;;;;;;;28.69;54.27;101118.59;6253934;23;19916;-82
2023/08/13 08:19:06;;;;;;;;;;;;;;;28.78;54.17;101122.44;6252458;23;19907;-83
2023/08/13 08:21:58;;;;;;;;;;;;;;;28.79;54.00;101117.63;6254471;23;19903;-83
2023/08/13 08:24:50;;;;;;;;;;;;;;;28.90;52.80;101115.41;6253219;23;19912;-84
2023/08/13 08:27:42;;;;;;;;;;;;;;;28.99;52.87;101115.63;6232725;23;19912;-83
2023/08/13 08:30:31;;;;;;;;;;;;;;;28.99;52.85;101123.22;6255188;23;19907;-84
2023/08/13 08:33:23;;;;;;;;;;;;;;;29.07;51.97;101113.44;6252362;23;20242;-85
2023/08/13 08:36:13;;;;;;;;;;;;;;;29.26;52.14;101116.22;6231233;23;19916;-85
2023/08/13 08:39:05;;;;;;;;;;;;;;;29.30;51.59;101114.16;6252020;23;19912;-85
2023/08/13 08:41:55;;;;;;;;;;;;;;;29.39;51.28;101116.38;6235077;23;19907;-85
2023/08/13 08:44:47;;;;;;;;;;;;;;;29.47;50.51;101112.19;6256511;23;19907;-85
2023/08/13 08:47:38;;;;;;;;;;;;;;;29.58;50.76;101111.94;6256378;23;19907;-85
2023/08/13 08:50:27;;;;;;;;;;;;;;;29.59;51.17;101119.91;6255309;23;19911;-85
2023/08/13 08:53:16;;;;;;;;;;;;;;;29.57;51.44;101115.97;6255510;23;19911;-85
2023/08/13 08:56:07;;;;;;;;;;;;;;;29.71;50.80;101115.66;6234841;23;19912;-84
2023/08/13 08:58:57;;;;;;;;;;;;;;;29.80;50.61;101117.84;6234036;23;19907;-84
2023/08/13 09:01:49;;;;;;;;;;;;;;;29.93;50.07;101116.72;6255239;23;19908;-84
2023/08/13 09:04:40;;;;;;;;;;;;;;;29.96;50.06;101109.47;6256291;23;19911;-84
2023/08/13 09:07:31;;;;;;;;;;;;;;;29.99;50.52;101108.56;6255171;23;19908;-84
2023/08/13 09:10:23;;;;;;;;;;;;;;;30.03;49.10;101110.06;6256026;23;20322;-85
2023/08/13 09:13:15;;;;;;;;;;;;;;;30.09;48.72;101108.31;6255901;23;19907;-84
2023/08/13 09:16:11;;;;;;;;;;;;;;;30.19;49.07;101106.44;6255946;23;19912;-84
2023/08/13 09:19:00;;;;;;;;;;;;;;;30.23;48.30;101106.34;6257208;23;19908;-85
2023/08/13 09:21:53;;;;;;;;;;;;;;;30.25;48.25;101099.09;6235150;23;20238;-86
2023/08/13 09:24:43;;;;;;;;;;;;;;;30.32;47.87;101107.31;6257134;23;19907;-90
2023/08/13 09:27:32;;;;;;;;;;;;;;;30.36;47.75;101101.59;6257200;23;19907;-88
2023/08/13 09:30:34;;;;;;;;;;;;;;;30.39;47.16;101097.91;6256319;23;20250;-89
2023/08/13 09:33:26;;;;;;;;;;;;;;;30.41;47.53;101101.88;6256705;23;19911;-89
2023/08/13 09:36:18;;;;;;;;;;;;;;;30.55;47.38;101100.72;6256322;23;19911;-89
2023/08/13 09:39:08;;;;;;;;;;;;;;;30.66;47.31;101092.00;6262301;23;19908;-87
2023/08/13 09:42:00;;;;;;;;;;;;;;;30.73;46.82;101092.56;6258882;23;19908;-88
2023/08/13 09:44:56;;;;;;;;;;;;;;;30.86;46.57;101087.78;6263078;23;19907;-87
2023/08/13 09:47:50;;;;;;;;;;;;;;;30.95;45.44;101092.75;6257085;23;19933;-88
2023/08/13 09:50:46;;;;;;;;;;;;;;;31.09;45.32;101094.38;6255818;23;20269;-86
2023/08/13 09:53:40;;;;;;;;;;;;;;;31.15;45.50;101093.38;6234804;23;19907;-85
2023/08/13 09:56:32;;;;;;;;;;;;;;;31.13;45.77;101098.66;6255814;23;19915;-86
2023/08/13 09:59:21;;;;;;;;;;;;;;;31.28;45.01;101091.38;6255704;23;19912;-87
2023/08/13 10:02:11;;;;;;;;;;;;;;;31.44;44.39;101093.28;6234082;23;19907;-86
2023/08/13 10:05:03;;;;;;;;;;;;;;;31.44;43.63;101082.81;6256812;23;19911;-86
2023/08/13 10:07:55;;;;;;;;;;;;;;;31.50;43.96;101088.66;6234303;23;19907;-88
2023/08/13 10:10:47;;;;;;;;;;;;;;;31.59;43.73;101091.63;6256740;23;19907;-87
2023/08/13 10:13:37;;;;;;;;;;;;;;;31.65;42.44;101080.56;6256752;23;19907;-87
2023/08/13 10:16:29;;;;;;;;;;;;;;;31.57;42.44;101079.25;6256749;23;19911;-86
2023/08/13 10:19:19;;;;;;;;;;;;;;;31.64;43.43;101073.41;6234197;23;19907;-86
2023/08/13 10:22:14;;;;;;;;;;;;;;;31.64;43.23;101073.41;6255690;23;19907;-85
2023/08/13 10:25:06;;;;;;;;;;;;;;;31.68;43.25;101074.06;6256905;23;19908;-86
2023/08/13 10:27:58;;;;;;;;;;;;;;;31.69;42.52;101073.63;6255312;23;19907;-86
2023/08/13 10:30:49;;;;;;;;;;;;;;;31.68;41.92;101071.25;6234069;23;19912;-86
2023/08/13 10:33:41;;;;;;;;;;;;;;;31.65;43.07;101064.50;6234531;23;19911;-86
2023/08/13 10:36:46;;;;;;;;;;;;;;;31.81;43.35;101066.38;6255862;23;19915;-85
2023/08/13 10:39:37;;;;;;;;;;;;;;;31.93;42.73;101059.94;6234202;23;19907;-89
2023/08/13 10:42:33;;;;;;;;;;;;;;;32.02;42.62;101053.63;6232512;23;19907;-89
2023/08/13 10:45:24;;;;;;;;;;;;;;;32.20;42.17;101053.84;6255152;23;19907;-89
2023/08/13 10:48:27;;;;;;;;;;;;;;;32.22;41.59;101052.13;6256771;23;20246;-89
2023/08/13 10:51:25;;;;;;;;;;;;;;;32.33;41.53;101057.38;6234371;23;19907;-88
2023/08/13 10:54:19;;;;;;;;;;;;;;;32.33;40.25;101042.50;6234706;23;19908;-88
2023/08/13 10:57:09;;;;;;;;;;;;;;;32.34;40.96;101049.72;6234794;23;20377;-86
2023/08/13 11:00:01;;;;;;;;;;;;;;;32.38;40.09;101047.56;6234710;23;19907;-88
2023/08/13 11:02:59;;;;;;;;;;;;;;;32.40;40.40;101048.69;6255475;23;19907;-88
2023/08/13 11:05:52;;;;;;;;;;;;;;;32.38;40.34;101048.34;6255507;23;19911;-88
2023/08/13 11:08:46;;;;;;;;;;;;;;;32.54;39.59;101044.53;6256446;23;19907;-88
2023/08/13 11:11:36;;;;;;;;;;;;;;;32.63;39.65;101048.22;6255692;23;19907;-87
2023/08/13 11:14:21;;;;;;;;;;;;;;;32.74;40.16;101044.22;6255542;23;19908;-88
2023/08/13 11:17:10;;;;;;;;;;;;;;;32.61;40.33;101039.41;6255528;23;19911;-88
2023/08/13 11:20:02;;;;;;;;;;;;;;;32.63;40.34;101034.13;6255235;23;19911;-88
2023/08/13 11:22:57;;;;;;;;;;;;;;;32.70;39.32;101027.47;6255415;23;19908;-89
2023/08/13 11:25:49;;;;;;;;;;;;;;;32.72;39.93;101033.41;6256914;23;19907;-89
2023/08/13 11:28:40;;;;;;;;;;;;;;;32.72;40.29;101044.69;6255619;23;19908;-88
2023/08/13 11:31:52;;;;;;;;;;;;;;;32.86;39.75;101030.09;6256199;23;19907;-90
2023/08/13 11:34:39;;;;;;;;;;;;;;;32.93;39.04;101032.59;6234383;23;20269;-91
2023/08/13 11:37:30;;;;;;;;;;;;;;;33.02;38.67;101034.66;6234716;23;19911;-89
2023/08/13 11:40:23;;;;;;;;;;;;;;;33.00;38.10;101031.56;6234483;23;19933;-87
2023/08/13 11:43:09;;;;;;;;;;;;;;;32.93;37.64;101029.78;6255448;23;19908;-87
2023/08/13 11:46:01;;;;;;;;;;;;;;;32.98;37.55;101028.41;6256417;23;19907;-87
2023/08/13 11:49:03;;;;;;;;;;;;;;;32.95;36.60;101021.66;6256357;23;19908;-87
2023/08/13 11:51:57;;;;;;;;;;;;;;;32.99;38.15;101025.13;6255082;23;19903;-88
2023/08/13 11:54:49;;;;;;;;;;;;;;;32.96;37.53;101014.78;6257410;23;20254;-90
2023/08/13 11:57:41;;;;;;;;;;;;;;;33.08;37.52;101016.69;6255577;23;19911;-90
2023/08/13 12:00:34;;;;;;;;;;;;;;;33.13;37.53;101017.34;6234215;23;19911;-87
2023/08/13 12:03:23;;;;;;;;;;;;;;;33.25;37.10;101013.66;6249482;23;19911;-81
2023/08/13 12:06:15;;;;;;;;;;;;;;;33.29;35.57;101008.66;6252708;23;19912;-80
2023/08/13 12:09:07;;;;;;;;;;;;;;;33.38;35.48;101011.50;6253373;23;19911;-81
2023/08/13 12:11:57;;;;;;;;;;;;;;;33.33;35.69;101020.59;6252464;23;20330;-81
2023/08/13 12:14:49;;;;;;;;;;;;;;;33.24;35.42;101007.25;6230561;23;19907;-81
2023/08/13 12:17:38;;;;;;;;;;;;;;;33.28;35.96;101012.72;6252259;23;20250;-81
2023/08/13 12:20:28;;;;;;;;;;;;;;;33.37;36.03;100999.44;6253196;23;19908;-82
2023/08/13 12:23:18;;;;;;;;;;;;;;;33.41;35.88;101002.94;6254052;23;19927;-82
2023/08/13 12:26:10;;;;;;;;;;;;;;;33.43;35.43;100997.59;6232297;23;19907;-80
2023/08/13 12:29:02;;;;;;;;;;;;;;;33.53;35.04;100998.38;6252924;23;19907;-81
2023/08/13 12:31:54;;;;;;;;;;;;;;;33.57;35.07;100999.03;6253178;23;19908;-81
2023/08/13 12:34:41;;;;;;;;;;;;;;;33.52;34.69;100994.78;6253991;23;19912;-83
2023/08/13 12:37:33;;;;;;;;;;;;;;;33.60;34.40;100994.50;6231835;23;19911;-83
2023/08/13 12:40:25;;;;;;;;;;;;;;;33.51;34.75;100983.97;6231590;23;19908;-81
2023/08/13 12:43:17;;;;;;;;;;;;;;;33.52;34.89;100983.50;6253710;23;19907;-79
2023/08/13 12:46:10;;;;;;;;;;;;;;;33.57;34.81;100973.66;6253126;23;19907;-81
2023/08/13 12:49:02;;;;;;;;;;;;;;;33.69;34.29;100981.22;6252858;23;19908;-81
2023/08/13 12:51:51;;;;;;;;;;;;;;;33.70;34.20;100987.63;6251373;23;20331;-82
2023/08/13 12:54:43;;;;;;;;;;;;;;;33.64;33.65;100983.84;6253014;23;19912;-83
2023/08/13 12:57:35;;;;;;;;;;;;;;;33.68;34.50;100981.69;6254830;23;19911;-82
2023/08/13 13:00:27;;;;;;;;;;;;;;;33.66;33.86;100975.69;6233159;23;19908;-84
2023/08/13 13:03:17;;;;;;;;;;;;;;;33.65;34.08;100977.72;6253361;23;19911;-82
2023/08/13 13:06:05;;;;;;;;;;;;;;;33.70;34.04;100988.44;6253649;23;19911;-81
2023/08/13 13:08:56;;;;;;;;;;;;;;;33.69;33.96;100972.75;6232782;23;19911;-82
2023/08/13 13:11:46;;;;;;;;;;;;;;;33.78;33.90;100966.34;6255415;23;19907;-81
2023/08/13 13:14:33;;;;;;;;;;;;;;;33.85;34.00;100966.81;6255570;23;20419;-80
2023/08/13 13:17:25;;;;;;;;;;;;;;;33.70;33.72;100962.25;6253774;23;19911;-82
2023/08/13 13:20:15;;;;;;;;;;;;;;;33.81;34.27;100968.22;6253895;23;19911;-80
2023/08/13 13:23:06;;;;;;;;;;;;;;;33.80;34.59;100963.81;6251686;23;19908;-83
2023/08/13 13:26:00;;;;;;;;;;;;;;;33.71;34.57;100961.78;6244596;23;20262;-83
2023/08/13 13:28:52;;;;;;;;;;;;;;;33.76;34.36;100955.53;6234468;23;19911;-83
2023/08/13 13:31:39;;;;;;;;;;;;;;;33.80;34.15;100956.16;6235566;23;19907;-84
2023/08/13 13:34:28;;;;;;;;;;;;;;;33.83;33.94;100952.38;6257251;23;19907;-85
2023/08/13 13:37:18;;;;;;;;;;;;;;;33.86;33.68;100956.31;6258702;23;19911;-85
2023/08/13 13:40:09;;;;;;;;;;;;;;;33.73;34.51;100952.88;6235004;23;19907;-84
2023/08/13 13:43:03;;;;;;;;;;;;;;;33.51;35.32;100950.13;6234764;23;19919;-82
2023/08/13 13:45:55;;;;;;;;;;;;;;;33.62;35.36;100953.28;6254689;23;19907;-84
2023/08/13 13:48:47;;;;;;;;;;;;;;;33.71;35.01;100941.25;6234140;23;19911;-82
2023/08/13 13:51:39;;;;;;;;;;;;;;;33.68;35.16;100940.13;6235142;23;19908;-82
2023/08/13 13:54:31;;;;;;;;;;;;;;;33.74;35.26;100943.13;6255116;23;19907;-84
2023/08/13 13:57:23;;;;;;;;;;;;;;;33.75;35.41;100942.66;6233887;23;19920;-83
2023/08/13 14:00:15;;;;;;;;;;;;;;;33.61;35.50;100931.19;6255578;23;19907;-84
2023/08/13 14:03:07;;;;;;;;;;;;;;;33.51;34.56;100930.41;6233982;23;20250;-83
2023/08/13 14:05:56;;;;;;;;;;;;;;;33.52;33.63;100935.53;6255513;23;19911;-83
2023/08/13 14:08:48;;;;;;;;;;;;;;;33.46;35.11;100928.19;6254314;23;19912;-83
2023/08/13 14:11:40;;;;;;;;;;;;;;;33.56;34.86;100923.34;6255669;23;19907;-84
2023/08/13 14:14:32;;;;;;;;;;;;;;;33.35;35.04;100911.72;6256445;23;19912;-84
2023/08/13 14:17:21;;;;;;;;;;;;;;;33.10;32.40;100918.38;6255273;23;19911;-83
2023/08/13 14:20:11;;;;;;;;;;;;;;;33.23;32.27;100914.66;6255759;23;19907;-83
2023/08/13 14:23:02;;;;;;;;;;;;;;;33.08;32.52;100912.41;6233729;23;20326;-78
2023/08/13 14:25:53;;;;;;;;;;;;;;;32.93;32.62;100908.63;6253888;23;19912;-81
2023/08/13 14:28:45;;;;;;;;;;;;;;;33.07;33.24;100919.28;6254924;23;19911;-78
2023/08/13 14:31:37;;;;;;;;;;;;;;;33.10;31.93;100915.56;6255301;23;19908;-80
2023/08/13 14:34:30;;;;;;;;;;;;;;;32.91;32.98;100911.13;6253057;23;20334;-80
2023/08/13 14:37:22;;;;;;;;;;;;;;;32.83;33.58;100911.84;6254379;23;19915;-80
2023/08/13 14:40:11;;;;;;;;;;;;;;;32.90;33.46;100908.75;6253971;23;20546;-79